createdAt,value
2018-03-06T00:00:54.034Z,20.67
2018-03-06T00:01:56.620Z,18.10
2018-03-06T00:02:59.165Z,18.45
2018-03-06T00:04:01.724Z,23.40
2018-03-06T00:05:04.277Z,22.35
2018-03-06T00:06:06.819Z,19.05
2018-03-06T00:07:09.361Z,21.05
2018-03-06T00:08:11.898Z,22.98
2018-03-06T00:09:14.450Z,20.25
2018-03-06T00:10:16.993Z,19.23
2018-03-06T00:11:19.551Z,20.02
2018-03-06T00:12:22.092Z,22.30
2018-03-06T00:13:24.648Z,21.98
2018-03-06T00:14:27.249Z,22.73
2018-03-06T00:15:29.772Z,21.20
2018-03-06T00:16:32.332Z,24.67
2018-03-06T00:17:34.884Z,22.10
2018-03-06T00:18:37.726Z,26.75
2018-03-06T00:19:40.268Z,22.75
2018-03-06T00:20:42.824Z,21.12
2018-03-06T00:21:45.373Z,21.15
2018-03-06T00:22:47.930Z,21.45
2018-03-06T00:23:50.473Z,24.10
2018-03-06T00:24:53.009Z,26.90
2018-03-06T00:25:55.588Z,22.48
2018-03-06T00:26:58.118Z,27.23
2018-03-06T00:28:00.658Z,26.15
2018-03-06T00:29:03.217Z,24.15
2018-03-06T00:30:05.772Z,31.50
2018-03-06T00:31:08.334Z,23.62
2018-03-06T00:32:10.886Z,28.70
2018-03-06T00:33:13.440Z,23.08
2018-03-06T00:34:15.958Z,34.60
2018-03-06T00:35:18.497Z,22.85
2018-03-06T00:36:21.046Z,27.08
2018-03-06T00:37:23.588Z,28.27
2018-03-06T00:38:26.135Z,21.90
2018-03-06T00:39:28.676Z,24.80
2018-03-06T00:40:31.229Z,25.30
2018-03-06T00:41:33.810Z,27.92
2018-03-06T00:42:36.342Z,22.42
2018-03-06T00:43:38.892Z,26.65
2018-03-06T00:44:41.435Z,26.87
2018-03-06T00:45:43.988Z,26.98
2018-03-06T00:46:46.543Z,24.05
2018-03-06T00:47:49.083Z,23.80
2018-03-06T00:48:51.640Z,28.73
2018-03-06T00:49:54.199Z,26.17
2018-03-06T00:50:56.767Z,24.23
2018-03-06T00:51:59.326Z,30.83
2018-03-06T00:53:01.848Z,26.80
2018-03-06T00:54:04.405Z,24.08
2018-03-06T00:55:06.959Z,24.83
2018-03-06T00:56:09.522Z,25.05
2018-03-06T00:57:12.066Z,24.17
2018-03-06T00:58:14.613Z,29.23
2018-03-06T00:59:17.166Z,31.00
2018-03-06T01:00:19.710Z,31.60
2018-03-06T01:01:22.282Z,23.60
2018-03-06T01:02:24.869Z,28.25
2018-03-06T01:03:27.392Z,24.55
2018-03-06T01:04:29.922Z,25.00
2018-03-06T01:05:32.476Z,30.55
2018-03-06T01:06:35.043Z,27.00
2018-03-06T01:07:37.588Z,26.50
2018-03-06T01:08:40.132Z,25.17
2018-03-06T01:09:42.684Z,27.73
2018-03-06T01:10:45.220Z,26.08
2018-03-06T01:11:47.796Z,32.22
2018-03-06T01:12:50.351Z,27.50
2018-03-06T01:13:52.900Z,24.98
2018-03-06T01:14:55.445Z,30.12
2018-03-06T01:15:57.995Z,33.35
2018-03-06T01:17:00.560Z,30.15
2018-03-06T01:18:03.107Z,28.75
2018-03-06T01:19:05.663Z,25.40
2018-03-06T01:20:08.217Z,29.20
2018-03-06T01:21:10.800Z,26.25
2018-03-06T01:22:13.372Z,27.55
2018-03-06T01:23:15.930Z,29.42
2018-03-06T01:24:18.479Z,30.70
2018-03-06T01:25:21.019Z,30.33
2018-03-06T01:26:23.568Z,32.05
2018-03-06T01:27:26.119Z,30.35
2018-03-06T01:28:28.662Z,36.38
2018-03-06T01:29:31.211Z,30.92
2018-03-06T01:30:33.752Z,32.08
2018-03-06T01:31:36.303Z,32.97
2018-03-06T01:32:38.864Z,29.40
2018-03-06T01:33:41.411Z,26.77
2018-03-06T01:34:43.952Z,29.33
2018-03-06T01:35:46.494Z,33.10
2018-03-06T01:36:49.021Z,30.70
2018-03-06T01:37:51.588Z,31.65
2018-03-06T01:38:54.125Z,29.60
2018-03-06T01:39:56.670Z,28.65
2018-03-06T01:40:59.194Z,31.58
2018-03-06T01:42:01.722Z,30.88
2018-03-06T01:43:04.324Z,27.73
2018-03-06T01:44:06.862Z,28.38
2018-03-06T01:45:09.389Z,37.60
2018-03-06T01:46:11.921Z,30.42
2018-03-06T01:47:14.483Z,29.48
2018-03-06T01:48:17.145Z,32.33
2018-03-06T01:49:19.716Z,29.40
2018-03-06T01:50:22.262Z,30.80
2018-03-06T01:51:24.811Z,32.28
2018-03-06T01:52:27.351Z,29.83
2018-03-06T01:53:29.924Z,31.08
2018-03-06T01:54:32.466Z,37.13
2018-03-06T01:55:35.002Z,39.55
2018-03-06T01:56:37.530Z,32.50
2018-03-06T01:57:40.058Z,30.48
2018-03-06T01:58:42.618Z,27.02
2018-03-06T01:59:45.160Z,29.83
2018-03-06T02:00:47.712Z,32.00
2018-03-06T02:01:50.247Z,34.70
2018-03-06T02:02:52.916Z,32.17
2018-03-06T02:03:55.440Z,30.65
2018-03-06T02:04:57.980Z,33.00
2018-03-06T02:06:00.528Z,34.45
2018-03-06T02:07:03.086Z,37.70
2018-03-06T02:08:05.622Z,29.60
2018-03-06T02:09:08.178Z,33.58
2018-03-06T02:10:10.704Z,32.00
2018-03-06T02:11:13.255Z,34.22
2018-03-06T02:12:15.804Z,28.70
2018-03-06T02:13:18.337Z,31.85
2018-03-06T02:14:20.870Z,33.25
2018-03-06T02:15:23.416Z,36.40
2018-03-06T02:16:25.969Z,34.10
2018-03-06T02:17:28.516Z,36.72
2018-03-06T02:18:31.062Z,34.15
2018-03-06T02:19:33.620Z,33.00
2018-03-06T02:20:36.152Z,32.65
2018-03-06T02:21:38.684Z,27.20
2018-03-06T02:22:41.209Z,31.35
2018-03-06T02:23:43.744Z,32.47
2018-03-06T02:24:46.361Z,31.75
2018-03-06T02:25:48.960Z,37.15
2018-03-06T02:26:51.507Z,29.33
2018-03-06T02:27:54.046Z,34.83
2018-03-06T02:28:56.596Z,29.98
2018-03-06T02:29:59.134Z,30.92
2018-03-06T02:31:01.684Z,31.42
2018-03-06T02:32:04.259Z,29.17
2018-03-06T02:33:06.794Z,34.85
2018-03-06T02:34:09.322Z,36.47
2018-03-06T02:35:11.868Z,29.48
2018-03-06T02:36:14.398Z,34.03
2018-03-06T02:37:16.933Z,37.65
2018-03-06T02:38:19.496Z,31.30
2018-03-06T02:39:22.049Z,37.78
2018-03-06T02:40:24.593Z,35.45
2018-03-06T02:41:27.181Z,33.03
2018-03-06T02:42:29.714Z,31.45
2018-03-06T02:43:32.256Z,35.85
2018-03-06T02:44:34.804Z,41.08
2018-03-06T02:45:37.355Z,33.72
2018-03-06T02:46:39.897Z,36.17
2018-03-06T02:47:42.439Z,33.83
2018-03-06T02:48:44.969Z,34.33
2018-03-06T02:49:47.531Z,37.53
2018-03-06T02:50:50.080Z,35.25
2018-03-06T02:51:52.624Z,36.83
2018-03-06T02:52:55.365Z,37.50
2018-03-06T02:53:57.918Z,34.08
2018-03-06T02:55:00.438Z,38.08
2018-03-06T02:56:02.987Z,31.90
2018-03-06T02:57:05.537Z,32.30
2018-03-06T02:58:08.088Z,33.10
2018-03-06T02:59:10.643Z,31.45
2018-03-06T03:00:13.212Z,42.40
2018-03-06T03:01:15.757Z,36.25
2018-03-06T03:02:18.320Z,37.78
2018-03-06T03:03:20.875Z,33.30
2018-03-06T03:04:23.416Z,35.25
2018-03-06T03:05:25.968Z,35.33
2018-03-06T03:06:28.510Z,34.10
2018-03-06T03:07:31.068Z,36.10
2018-03-06T03:08:33.603Z,38.33
2018-03-06T03:09:36.152Z,32.28
2018-03-06T03:10:38.688Z,34.00
2018-03-06T03:11:41.225Z,33.72
2018-03-06T03:12:43.758Z,32.05
2018-03-06T03:13:46.304Z,35.05
2018-03-06T03:14:48.860Z,28.20
2018-03-06T03:15:51.424Z,35.75
2018-03-06T03:16:53.979Z,29.75
2018-03-06T03:17:56.539Z,31.60
2018-03-06T03:18:59.080Z,43.53
2018-03-06T03:20:01.676Z,33.28
2018-03-06T03:21:04.182Z,27.48
2018-03-06T03:22:06.723Z,34.65
2018-03-06T03:23:09.269Z,33.58
2018-03-06T03:24:11.825Z,35.10
2018-03-06T03:25:14.383Z,31.48
2018-03-06T03:26:16.941Z,30.12
2018-03-06T03:27:19.486Z,34.58
2018-03-06T03:28:22.070Z,36.13
2018-03-06T03:29:24.621Z,33.95
2018-03-06T03:30:27.195Z,38.50
2018-03-06T03:31:29.734Z,34.78
2018-03-06T03:32:32.289Z,35.47
2018-03-06T03:33:34.844Z,38.88
2018-03-06T03:34:37.378Z,40.63
2018-03-06T03:35:39.937Z,33.10
2018-03-06T03:36:42.515Z,36.65
2018-03-06T03:37:45.070Z,42.30
2018-03-06T03:38:47.674Z,38.13
2018-03-06T03:39:50.216Z,37.80
2018-03-06T03:40:52.803Z,38.05
2018-03-06T03:41:55.345Z,35.90
2018-03-06T03:42:57.894Z,31.23
2018-03-06T03:44:00.448Z,37.20
2018-03-06T03:45:03.005Z,38.90
2018-03-06T03:46:05.564Z,39.63
2018-03-06T03:47:08.518Z,37.30
2018-03-06T03:48:11.071Z,45.08
2018-03-06T03:49:13.610Z,39.58
2018-03-06T03:50:16.138Z,37.28
2018-03-06T03:51:18.685Z,37.95
2018-03-06T03:52:21.218Z,33.08
2018-03-06T03:53:23.775Z,34.90
2018-03-06T03:54:26.351Z,39.15
2018-03-06T03:55:28.901Z,34.42
2018-03-06T03:56:31.434Z,34.08
2018-03-06T03:57:33.982Z,39.78
2018-03-06T03:58:36.519Z,35.25
2018-03-06T03:59:39.063Z,35.53
2018-03-06T04:00:41.600Z,33.83
2018-03-06T04:01:44.153Z,38.25
2018-03-06T04:02:46.709Z,37.47
2018-03-06T04:03:49.247Z,41.10
2018-03-06T04:04:51.824Z,44.38
2018-03-06T04:05:54.379Z,35.88
2018-03-06T04:06:56.923Z,38.40
2018-03-06T04:07:59.479Z,38.70
2018-03-06T04:09:02.007Z,37.10
2018-03-06T04:10:04.543Z,36.58
2018-03-06T04:11:07.077Z,34.70
2018-03-06T04:12:09.614Z,39.33
2018-03-06T04:13:12.141Z,37.33
2018-03-06T04:14:14.683Z,35.30
2018-03-06T04:15:17.252Z,37.75
2018-03-06T04:16:19.825Z,40.05
2018-03-06T04:17:22.361Z,39.45
2018-03-06T04:18:24.910Z,39.45
2018-03-06T04:19:27.450Z,43.67
2018-03-06T04:20:29.984Z,37.70
2018-03-06T04:21:32.554Z,44.72
2018-03-06T04:22:35.101Z,38.50
2018-03-06T04:23:37.631Z,39.60
2018-03-06T04:24:40.184Z,37.30
2018-03-06T04:25:42.721Z,39.83
2018-03-06T04:26:45.293Z,39.17
2018-03-06T04:27:47.840Z,39.47
2018-03-06T04:28:50.384Z,35.22
2018-03-06T04:29:52.926Z,37.47
2018-03-06T04:30:55.479Z,42.67
2018-03-06T04:31:58.051Z,35.58
2018-03-06T04:33:00.600Z,43.33
2018-03-06T04:34:03.146Z,30.75
2018-03-06T04:35:05.688Z,41.80
2018-03-06T04:36:08.227Z,41.58
2018-03-06T04:37:10.799Z,43.53
2018-03-06T04:38:13.350Z,40.75
2018-03-06T04:39:15.882Z,33.42
2018-03-06T04:40:18.445Z,41.20
2018-03-06T04:41:20.986Z,37.15
2018-03-06T04:42:23.533Z,34.28
2018-03-06T04:43:26.217Z,37.90
2018-03-06T04:44:28.763Z,44.47
2018-03-06T04:45:31.317Z,35.30
2018-03-06T04:46:33.857Z,35.33
2018-03-06T04:47:36.393Z,38.88
2018-03-06T04:48:38.924Z,34.00
2018-03-06T04:49:41.468Z,38.85
2018-03-06T04:50:44.028Z,44.53
2018-03-06T04:51:46.551Z,41.03
2018-03-06T04:52:49.100Z,35.13
2018-03-06T04:53:51.643Z,39.25
2018-03-06T04:54:54.204Z,38.17
2018-03-06T04:55:56.753Z,38.55
2018-03-06T04:56:59.308Z,49.08
2018-03-06T04:58:01.856Z,40.40
2018-03-06T04:59:04.394Z,41.65
2018-03-06T05:00:06.930Z,42.33
2018-03-06T05:01:09.476Z,41.78
2018-03-06T05:02:12.019Z,44.20
2018-03-06T05:03:14.573Z,40.75
2018-03-06T05:04:17.121Z,40.10
2018-03-06T05:05:19.672Z,44.33
2018-03-06T05:06:22.218Z,36.80
2018-03-06T05:07:24.737Z,41.40
2018-03-06T05:08:27.273Z,43.13
2018-03-06T05:09:29.806Z,37.63
2018-03-06T05:10:32.356Z,44.80
2018-03-06T05:11:34.900Z,43.87
2018-03-06T05:12:37.459Z,39.15
2018-03-06T05:13:40.008Z,40.67
2018-03-06T05:14:42.568Z,42.92
2018-03-06T05:15:45.102Z,47.45
2018-03-06T05:16:47.626Z,42.30
2018-03-06T05:17:50.157Z,39.20
2018-03-06T05:18:52.726Z,44.30
2018-03-06T05:19:55.267Z,42.78
2018-03-06T05:20:57.801Z,40.45
2018-03-06T05:22:00.347Z,40.67
2018-03-06T05:23:02.924Z,43.28
2018-03-06T05:24:05.462Z,46.05
2018-03-06T05:25:07.998Z,49.50
2018-03-06T05:26:10.530Z,42.88
2018-03-06T05:27:13.049Z,44.17
2018-03-06T05:28:15.607Z,48.30
2018-03-06T05:29:18.180Z,45.90
2018-03-06T05:30:20.719Z,47.13
2018-03-06T05:31:23.278Z,44.30
2018-03-06T05:32:25.840Z,44.95
2018-03-06T05:33:28.399Z,41.95
2018-03-06T05:34:30.935Z,44.38
2018-03-06T05:35:33.480Z,51.83
2018-03-06T05:36:36.017Z,43.80
2018-03-06T05:37:39.396Z,43.60
2018-03-06T05:38:50.537Z,45.75
2018-03-06T05:39:53.083Z,45.28
2018-03-06T05:40:55.628Z,39.67
2018-03-06T05:41:58.190Z,45.30
2018-03-06T05:43:00.740Z,54.30
2018-03-06T05:44:03.996Z,47.92
2018-03-06T05:45:06.542Z,47.95
2018-03-06T05:46:09.077Z,47.95
2018-03-06T05:47:11.636Z,44.97
2018-03-06T05:48:14.171Z,47.60
2018-03-06T05:49:16.727Z,48.08
2018-03-06T05:50:19.493Z,51.10
2018-03-06T05:51:22.692Z,49.20
2018-03-06T05:52:25.582Z,53.42
2018-03-06T05:53:28.271Z,44.53
2018-03-06T05:54:31.669Z,47.62
2018-03-06T05:55:34.395Z,45.05
2018-03-06T05:56:37.877Z,42.45
2018-03-06T05:57:40.553Z,42.28
2018-03-06T05:58:43.612Z,48.72
2018-03-06T05:59:46.153Z,44.30
2018-03-06T06:00:48.695Z,51.83
2018-03-06T06:01:51.238Z,45.95
2018-03-06T06:02:53.788Z,44.88
2018-03-06T06:03:56.328Z,45.95
2018-03-06T06:04:58.870Z,51.72
2018-03-06T06:06:01.419Z,48.30
2018-03-06T06:07:03.972Z,47.95
2018-03-06T06:08:06.503Z,53.55
2018-03-06T06:09:09.045Z,45.25
2018-03-06T06:10:11.578Z,50.25
2018-03-06T06:11:14.110Z,52.60
2018-03-06T06:12:16.655Z,51.83
2018-03-06T06:13:19.209Z,48.60
2018-03-06T06:14:21.752Z,51.80
2018-03-06T06:15:29.638Z,48.08
2018-03-06T06:16:32.184Z,49.63
2018-03-06T06:17:34.751Z,52.83
2018-03-06T06:18:38.047Z,50.55
2018-03-06T06:19:40.578Z,44.70
2018-03-06T06:20:43.097Z,46.90
2018-03-06T06:21:49.844Z,46.33
2018-03-06T06:22:52.776Z,46.55
2018-03-06T06:23:55.827Z,57.08
2018-03-06T06:24:58.418Z,52.20
2018-03-06T06:26:01.065Z,50.17
2018-03-06T06:27:03.703Z,52.83
2018-03-06T06:28:06.375Z,51.58
2018-03-06T06:29:08.965Z,60.85
2018-03-06T06:30:11.493Z,50.45
2018-03-06T06:31:14.016Z,55.40
2018-03-06T06:32:16.557Z,51.35
2018-03-06T06:33:19.100Z,49.13
2018-03-06T06:34:21.753Z,48.13
2018-03-06T06:35:24.376Z,53.90
2018-03-06T06:36:26.927Z,50.75
2018-03-06T06:37:29.456Z,47.13
2018-03-06T06:38:31.964Z,51.97
2018-03-06T06:39:34.520Z,48.50
2018-03-06T06:40:37.044Z,44.25
2018-03-06T06:41:39.558Z,51.65
2018-03-06T06:42:42.132Z,46.78
2018-03-06T06:43:44.649Z,58.65
2018-03-06T06:44:47.194Z,54.88
2018-03-06T06:45:49.734Z,50.38
2018-03-06T06:46:52.306Z,50.53
2018-03-06T06:47:54.811Z,50.55
2018-03-06T06:48:57.353Z,54.53
2018-03-06T06:49:59.891Z,46.88
2018-03-06T06:51:02.505Z,47.92
2018-03-06T06:52:05.048Z,49.58
2018-03-06T06:53:07.562Z,60.45
2018-03-06T06:54:10.088Z,51.45
2018-03-06T06:55:12.646Z,50.85
2018-03-06T06:56:15.179Z,52.90
2018-03-06T06:57:17.717Z,52.20
2018-03-06T06:58:20.241Z,50.58
2018-03-06T06:59:22.763Z,51.47
2018-03-06T07:00:25.284Z,51.08
2018-03-06T07:01:27.804Z,51.33
2018-03-06T07:02:30.361Z,50.47
2018-03-06T07:03:32.882Z,50.92
2018-03-06T07:04:35.482Z,57.55
2018-03-06T07:05:38.286Z,56.00
2018-03-06T07:06:40.853Z,49.35
2018-03-06T07:07:43.362Z,60.83
2018-03-06T07:08:45.882Z,53.35
2018-03-06T07:09:48.422Z,49.88
2018-03-06T07:10:50.930Z,53.08
2018-03-06T07:11:53.449Z,48.05
2018-03-06T07:12:55.976Z,56.13
2018-03-06T07:13:58.485Z,54.63
2018-03-06T07:15:01.034Z,55.20
2018-03-06T07:16:03.606Z,49.38
2018-03-06T07:17:06.121Z,56.95
2018-03-06T07:18:08.754Z,57.62
2018-03-06T07:19:11.335Z,47.28
2018-03-06T07:20:13.866Z,52.22
2018-03-06T07:21:16.520Z,55.65
2018-03-06T07:22:19.016Z,49.28
2018-03-06T07:23:21.543Z,54.72
2018-03-06T07:24:24.058Z,54.53
2018-03-06T07:25:26.568Z,58.85
2018-03-06T07:26:29.143Z,52.20
2018-03-06T07:27:31.632Z,57.90
2018-03-06T07:28:34.156Z,49.85
2018-03-06T07:29:36.681Z,52.75
2018-03-06T07:30:39.204Z,53.75
2018-03-06T07:31:41.713Z,53.80
2018-03-06T07:32:44.235Z,51.10
2018-03-06T07:33:46.772Z,54.08
2018-03-06T07:34:49.304Z,53.65
2018-03-06T07:35:51.811Z,64.70
2018-03-06T07:36:54.464Z,53.13
2018-03-06T07:37:57.346Z,55.12
2018-03-06T07:38:59.891Z,57.00
2018-03-06T07:40:02.562Z,64.25
2018-03-06T07:41:05.228Z,50.65
2018-03-06T07:42:07.910Z,53.85
2018-03-06T07:43:10.559Z,48.22
2018-03-06T07:44:13.082Z,48.87
2018-03-06T07:45:15.735Z,55.75
2018-03-06T07:46:18.402Z,52.58
2018-03-06T07:47:21.135Z,49.80
2018-03-06T07:48:28.084Z,56.78
2018-03-06T07:49:30.956Z,58.15
2018-03-06T07:50:33.540Z,48.97
2018-03-06T07:51:36.084Z,58.13
2018-03-06T07:52:38.683Z,52.30
2018-03-06T07:53:41.202Z,55.00
2018-03-06T07:54:43.727Z,52.53
2018-03-06T07:55:46.361Z,59.88
2018-03-06T07:56:48.990Z,53.38
2018-03-06T07:57:51.590Z,58.25
2018-03-06T07:58:54.354Z,52.10
2018-03-06T07:59:56.873Z,52.62
2018-03-06T08:00:59.563Z,54.08
2018-03-06T08:02:02.227Z,57.62
2018-03-06T08:03:04.745Z,52.30
2018-03-06T08:04:07.262Z,55.97
2018-03-06T08:05:09.800Z,55.25
2018-03-06T08:06:12.330Z,52.55
2018-03-06T08:07:14.919Z,50.00
2018-03-06T08:08:17.462Z,59.00
2018-03-06T08:09:20.010Z,55.35
2018-03-06T08:10:22.526Z,51.78
2018-03-06T08:11:25.052Z,65.55
2018-03-06T08:12:27.642Z,65.72
2018-03-06T08:13:30.218Z,51.88
2018-03-06T08:14:32.744Z,53.47
2018-03-06T08:15:35.529Z,46.65
2018-03-06T08:16:38.095Z,53.78
2018-03-06T08:17:40.631Z,58.38
2018-03-06T08:18:43.164Z,58.67
2018-03-06T08:19:45.756Z,54.40
2018-03-06T08:20:48.418Z,54.55
2018-03-06T08:21:51.030Z,53.72
2018-03-06T08:22:53.562Z,50.17
2018-03-06T08:23:56.138Z,56.88
2018-03-06T08:24:58.648Z,57.78
2018-03-06T08:26:01.163Z,58.40
2018-03-06T08:27:03.690Z,60.85
2018-03-06T08:28:06.217Z,64.12
2018-03-06T08:29:08.729Z,56.50
2018-03-06T08:30:11.237Z,60.42
2018-03-06T08:31:13.772Z,56.47
2018-03-06T08:32:16.626Z,69.60
2018-03-06T08:33:19.487Z,56.22
2018-03-06T08:34:22.071Z,60.95
2018-03-06T08:35:24.616Z,61.47
2018-03-06T08:36:27.592Z,58.05
2018-03-06T08:37:30.113Z,55.17
2018-03-06T08:38:32.663Z,59.45
2018-03-06T08:39:35.337Z,59.72
2018-03-06T08:40:38.048Z,53.17
2018-03-06T08:41:40.636Z,53.15
2018-03-06T08:42:43.776Z,55.65
2018-03-06T08:43:46.699Z,52.40
2018-03-06T08:44:49.452Z,54.20
2018-03-06T08:45:52.040Z,59.67
2018-03-06T08:46:54.583Z,54.10
2018-03-06T08:47:57.330Z,60.28
2018-03-06T08:48:59.883Z,58.55
2018-03-06T08:50:02.445Z,50.72
2018-03-06T08:51:04.987Z,56.90
2018-03-06T08:52:07.512Z,58.05
2018-03-06T08:53:10.127Z,61.10
2018-03-06T08:54:13.577Z,53.42
2018-03-06T08:55:16.967Z,60.70
2018-03-06T08:56:19.659Z,59.25
2018-03-06T08:57:22.230Z,52.05
2018-03-06T08:58:24.857Z,50.90
2018-03-06T08:59:28.196Z,54.97
2018-03-06T09:00:30.828Z,57.75
2018-03-06T09:01:33.649Z,53.15
2018-03-06T09:02:36.291Z,57.08
2018-03-06T09:03:38.864Z,57.40
2018-03-06T09:04:41.371Z,51.92
2018-03-06T09:05:43.887Z,54.10
2018-03-06T09:06:46.424Z,59.90
2018-03-06T09:07:49.003Z,55.97
2018-03-06T09:08:51.519Z,63.45
2018-03-06T09:09:54.055Z,54.63
2018-03-06T09:10:56.573Z,53.42
2018-03-06T09:11:59.095Z,55.92
2018-03-06T09:13:01.648Z,54.55
2018-03-06T09:14:04.186Z,55.58
2018-03-06T09:15:06.758Z,63.17
2018-03-06T09:16:09.277Z,48.95
2018-03-06T09:17:11.813Z,53.70
2018-03-06T09:18:14.331Z,51.72
2018-03-06T09:19:16.994Z,61.80
2018-03-06T09:20:19.523Z,53.63
2018-03-06T09:21:22.054Z,56.83
2018-03-06T09:22:24.570Z,58.08
2018-03-06T09:23:27.078Z,60.78
2018-03-06T09:24:29.665Z,53.25
2018-03-06T09:25:32.170Z,58.60
2018-03-06T09:26:34.718Z,54.63
2018-03-06T09:27:37.245Z,53.75
2018-03-06T09:28:39.768Z,55.30
2018-03-06T09:29:42.302Z,52.78
2018-03-06T09:30:44.926Z,63.35
2018-03-06T09:31:47.460Z,56.35
2018-03-06T09:32:49.990Z,51.20
2018-03-06T09:33:52.505Z,56.25
2018-03-06T09:34:55.052Z,51.25
2018-03-06T09:35:57.590Z,52.67
2018-03-06T09:37:00.116Z,53.97
2018-03-06T09:38:02.655Z,54.47
2018-03-06T09:39:05.185Z,54.35
2018-03-06T09:40:07.714Z,60.85
2018-03-06T09:41:10.255Z,53.30
2018-03-06T09:42:12.910Z,52.45
2018-03-06T09:43:15.435Z,51.40
2018-03-06T09:44:17.953Z,60.42
2018-03-06T09:45:20.486Z,57.88
2018-03-06T09:46:23.421Z,66.80
2018-03-06T09:47:25.953Z,64.55
2018-03-06T09:48:28.491Z,55.63
2018-03-06T09:49:31.016Z,51.42
2018-03-06T09:50:33.558Z,53.58
2018-03-06T09:51:36.077Z,54.13
2018-03-06T09:52:38.609Z,57.00
2018-03-06T09:53:41.149Z,52.38
2018-03-06T09:54:43.790Z,45.30
2018-03-06T09:55:46.334Z,54.08
2018-03-06T09:56:48.878Z,50.92
2018-03-06T09:57:51.395Z,50.30
2018-03-06T09:58:53.936Z,54.40
2018-03-06T09:59:56.465Z,53.22
2018-03-06T10:00:59.001Z,51.63
2018-03-06T10:02:01.620Z,52.30
2018-03-06T10:03:04.176Z,50.80
2018-03-06T10:04:06.884Z,52.28
2018-03-06T10:05:09.427Z,56.65
2018-03-06T10:06:11.963Z,47.38
2018-03-06T10:07:14.546Z,49.33
2018-03-06T10:08:17.073Z,57.80
2018-03-06T10:09:19.772Z,48.72
2018-03-06T10:10:22.333Z,52.50
2018-03-06T10:11:24.871Z,52.10
2018-03-06T10:12:27.391Z,49.42
2018-03-06T10:13:29.965Z,51.03
2018-03-06T10:14:32.492Z,46.65
2018-03-06T10:15:35.104Z,48.05
2018-03-06T10:16:37.767Z,48.30
2018-03-06T10:17:41.609Z,44.35
2018-03-06T10:18:44.129Z,48.87
2018-03-06T10:19:46.653Z,49.10
2018-03-06T10:20:49.221Z,47.83
2018-03-06T10:21:51.776Z,48.15
2018-03-06T10:22:54.335Z,52.92
2018-03-06T10:23:56.863Z,46.33
2018-03-06T10:24:59.518Z,45.15
2018-03-06T10:26:02.046Z,44.08
2018-03-06T10:27:04.603Z,47.50
2018-03-06T10:28:07.126Z,45.75
2018-03-06T10:29:09.654Z,41.17
2018-03-06T10:30:12.219Z,46.80
2018-03-06T10:31:14.763Z,44.30
2018-03-06T10:32:19.192Z,46.95
2018-03-06T10:33:22.614Z,46.13
2018-03-06T10:36:39.221Z,46.30
2018-03-06T10:37:48.163Z,42.45
2018-03-06T10:38:50.916Z,46.58
2018-03-06T10:39:54.457Z,43.50
2018-03-06T10:40:56.970Z,47.78
2018-03-06T10:41:59.494Z,52.03
2018-03-06T10:43:02.031Z,47.62
2018-03-06T10:44:04.545Z,40.03
2018-03-06T10:45:07.067Z,46.75
2018-03-06T10:46:09.628Z,44.92
2018-03-06T10:47:12.554Z,42.92
2018-03-06T10:48:15.084Z,48.10
2018-03-06T10:49:17.622Z,47.85
2018-03-06T10:50:20.156Z,49.00
2018-03-06T10:51:22.679Z,44.58
2018-03-06T10:52:25.194Z,40.75
2018-03-06T10:53:27.749Z,44.45
2018-03-06T10:54:30.285Z,57.67
2018-03-06T10:55:32.818Z,42.92
2018-03-06T10:56:35.349Z,43.55
2018-03-06T10:57:37.881Z,45.00
2018-03-06T10:58:40.394Z,46.60
2018-03-06T10:59:42.944Z,44.85
2018-03-06T11:00:48.160Z,45.55
2018-03-06T11:01:50.718Z,45.00
2018-03-06T11:02:53.258Z,46.90
2018-03-06T11:03:55.777Z,51.47
2018-03-06T11:04:58.294Z,42.75
2018-03-06T11:06:00.824Z,42.60
2018-03-06T11:07:03.338Z,46.22
2018-03-06T11:08:05.850Z,40.08
2018-03-06T11:09:08.366Z,44.10
2018-03-06T11:10:10.921Z,46.30
2018-03-06T11:11:13.448Z,42.88
2018-03-06T11:12:15.975Z,42.17
2018-03-06T11:13:18.506Z,51.92
2018-03-06T11:14:21.031Z,38.20
2018-03-06T11:15:23.572Z,38.72
2018-03-06T11:16:26.096Z,43.85
2018-03-06T11:17:28.680Z,45.65
2018-03-06T11:18:31.204Z,40.92
2018-03-06T11:19:33.722Z,41.60
2018-03-06T11:20:36.233Z,42.00
2018-03-06T11:21:38.858Z,41.60
2018-03-06T11:22:41.370Z,46.70
2018-03-06T11:23:43.918Z,41.50
2018-03-06T11:24:46.456Z,43.67
2018-03-06T11:25:48.986Z,47.10
2018-03-06T11:26:51.519Z,72.25
2018-03-06T11:27:54.082Z,40.50
2018-03-06T11:28:56.975Z,38.65
2018-03-06T11:29:59.677Z,39.38
2018-03-06T11:31:02.226Z,35.15
2018-03-06T11:32:04.864Z,42.55
2018-03-06T11:33:07.401Z,43.13
2018-03-06T11:34:09.959Z,35.75
2018-03-06T11:35:12.474Z,40.83
2018-03-06T11:36:15.114Z,39.20
2018-03-06T11:37:17.653Z,33.92
2018-03-06T11:38:20.169Z,38.08
2018-03-06T11:39:22.692Z,38.40
2018-03-06T11:40:25.210Z,35.13
2018-03-06T11:41:27.747Z,35.53
2018-03-06T11:42:30.353Z,34.17
2018-03-06T11:43:32.918Z,35.70
2018-03-06T11:44:35.453Z,34.40
2018-03-06T11:45:37.961Z,31.90
2018-03-06T11:46:40.496Z,32.85
2018-03-06T11:47:43.010Z,39.35
2018-03-06T11:48:45.536Z,31.12
2018-03-06T11:49:48.080Z,32.85
2018-03-06T11:50:50.598Z,34.72
2018-03-06T11:51:53.149Z,37.38
2018-03-06T11:52:55.662Z,34.08
2018-03-06T11:53:58.174Z,35.58
2018-03-06T11:55:00.705Z,30.70
2018-03-06T11:56:03.240Z,30.05
2018-03-06T11:57:05.789Z,36.40
2018-03-06T11:58:08.432Z,28.52
2018-03-06T11:59:11.012Z,36.97
2018-03-06T12:00:13.578Z,32.63
2018-03-06T12:01:16.135Z,37.90
2018-03-06T12:02:18.880Z,36.03
2018-03-06T12:03:21.427Z,35.70
2018-03-06T12:04:23.978Z,36.17
2018-03-06T12:05:26.507Z,35.75
2018-03-06T12:06:29.040Z,27.73
2018-03-06T12:07:31.563Z,34.67
2018-03-06T12:08:34.157Z,30.00
2018-03-06T12:09:36.688Z,32.53
2018-03-06T12:10:39.210Z,30.80
2018-03-06T12:11:41.730Z,26.77
2018-03-06T12:12:44.290Z,32.80
2018-03-06T12:13:46.831Z,28.15
2018-03-06T12:14:49.396Z,28.52
2018-03-06T12:15:51.914Z,33.22
2018-03-06T12:16:54.429Z,37.58
2018-03-06T12:17:57.002Z,35.08
2018-03-06T12:18:59.545Z,29.80
2018-03-06T12:20:02.111Z,32.03
2018-03-06T12:21:04.625Z,35.67
2018-03-06T12:22:07.152Z,44.00
2018-03-06T12:23:09.696Z,37.47
2018-03-06T12:24:12.236Z,40.60
2018-03-06T12:25:14.784Z,39.40
2018-03-06T12:26:17.325Z,37.65
2018-03-06T12:27:19.850Z,42.40
2018-03-06T12:28:22.374Z,38.30
2018-03-06T12:29:24.887Z,39.05
2018-03-06T12:30:27.419Z,56.78
2018-03-06T12:31:29.948Z,45.00
2018-03-06T12:32:32.473Z,38.40
2018-03-06T12:33:35.081Z,34.67
2018-03-06T12:34:37.604Z,37.67
2018-03-06T12:35:40.143Z,36.10
2018-03-06T12:36:42.657Z,38.05
2018-03-06T12:37:45.171Z,37.92
2018-03-06T12:38:47.704Z,44.10
2018-03-06T12:39:50.341Z,38.38
2018-03-06T12:40:52.887Z,47.72
2018-03-06T12:41:55.411Z,40.95
2018-03-06T12:42:58.018Z,41.92
2018-03-06T12:44:00.545Z,37.85
2018-03-06T12:45:03.075Z,36.63
2018-03-06T12:46:05.591Z,40.33
2018-03-06T12:48:16.953Z,36.13
2018-03-06T12:49:19.501Z,39.78
2018-03-06T12:50:24.101Z,40.60
2018-03-06T12:51:29.077Z,43.72
2018-03-06T12:52:32.009Z,37.28
2018-03-06T12:53:34.552Z,37.55
2018-03-06T12:54:37.084Z,38.15
2018-03-06T12:55:39.597Z,36.90
2018-03-06T12:56:42.124Z,34.38
2018-03-06T12:57:44.674Z,38.67
2018-03-06T12:58:48.977Z,36.45
2018-03-06T12:59:51.576Z,37.35
2018-03-06T13:00:54.176Z,35.47
2018-03-06T13:01:56.694Z,36.88
2018-03-06T13:02:59.252Z,45.90
2018-03-06T13:04:01.984Z,36.58
2018-03-06T13:05:04.696Z,41.03
2018-03-06T13:06:07.284Z,37.33
2018-03-06T13:07:09.838Z,36.28
2018-03-06T13:08:12.366Z,35.78
2018-03-06T13:09:14.924Z,37.40
2018-03-06T13:10:20.668Z,30.10
2018-03-06T13:11:24.137Z,31.50
2018-03-06T13:12:27.612Z,35.00
2018-03-06T13:13:31.572Z,31.33
2018-03-06T13:14:34.202Z,39.42
2018-03-06T13:15:36.714Z,32.17
2018-03-06T13:16:51.886Z,40.58
2018-03-06T13:17:55.577Z,42.75
2018-03-06T13:19:01.918Z,38.72
2018-03-06T13:20:12.213Z,33.55
2018-03-06T13:21:14.964Z,32.22
2018-03-06T13:22:22.046Z,39.88
2018-03-06T13:23:28.007Z,34.20
2018-03-06T13:24:30.553Z,37.72
2018-03-06T13:25:33.070Z,36.45
2018-03-06T13:26:35.600Z,40.05
2018-03-06T13:27:38.171Z,40.80
2018-03-06T13:28:40.724Z,36.00
2018-03-06T13:29:43.250Z,35.53
2018-03-06T13:30:45.815Z,40.35